Northern Highway — 3EVE6 — position and weather

sailwx.info

Track history (hours):
 
Tides and Currents Weather Stations Pressure Air Temp Water Temp Dewpoint Dewpoint Depression Visibility Wind Speed Wind Dir Waves Ship Positions

Northern Highway

Last reported at 2014-Jul-01 20:25 UTC. Time now 2014-Jul-23 07:50 UTC.
Position N 34°44' E 141°05'.
Warning: this ship's position is 21 days out of date.

Length 188 m; draft 8 m.

Type: Cargo ship. MMSI: 371608000.

Date/timePositionNaut miles runAvg speedWind from/ knotsBaromVisibWave heightAir tempDewpointWater temp
2014-Jul-01 20:25N 34°44' E 141°05'1617.7
2014-Jul-01 19:31N 34°43' E 140°46'2117.9
2014-Jul-01 18:22N 34°41' E 140°21'1417.1
2014-Jul-01 17:32N 34°40' E 140°04'1616.4
2014-Jul-01 16:33N 34°39' E 139°44'1716.6
2014-Jul-01 15:31N 34°37' E 139°24'3916.8
2014-Jul-01 13:11N 34°30' E 138°36'  
2014-Jun-23 06:13N 34°01' E 130°51'18 5.7
2014-Jun-23 03:06N 34°03' E 130°30'1416.3
2014-Jun-23 02:12N 34°02' E 130°13'  
Track history (hours):
 
Tides and Currents Weather Stations Pressure Air Temp Water Temp Dewpoint Dewpoint Depression Visibility Wind Speed Wind Dir Waves Ship Positions

Northern Highway

Last reported at 2014-Jul-01 20:25 UTC. Time now 2014-Jul-23 07:50 UTC.
Position N 34°44' E 141°05'.
Warning: this ship's position is 21 days out of date.

Length 188 m; draft 8 m.

Type: Cargo ship. MMSI: 371608000.

Date/timePositionNaut miles runAvg speedWind from/ knotsBaromVisibWave heightAir tempDewpointWater temp
2014-Jul-01 20:25N 34°44' E 141°05'1617.7
2014-Jul-01 19:31N 34°43' E 140°46'2117.9
2014-Jul-01 18:22N 34°41' E 140°21'1417.1
2014-Jul-01 17:32N 34°40' E 140°04'1616.4
2014-Jul-01 16:33N 34°39' E 139°44'1716.6
2014-Jul-01 15:31N 34°37' E 139°24'3916.8
2014-Jul-01 13:11N 34°30' E 138°36'  
2014-Jun-23 06:13N 34°01' E 130°51'18 5.7
2014-Jun-23 03:06N 34°03' E 130°30'1416.3
2014-Jun-23 02:12N 34°02' E 130°13'  

Dump ship's entire track history